Time;durP1;ratioP1;P1;durP2;ratioP2;P2;SDS_P1;SDS_P2;PMS_P1;PMS_P2;Temp;Humidity;BMP_temperature;BMP_pressure;BME280_temperature;BME280_humidity;BME280_pressure;Samples;Min_cycle;Max_cycle;Signal;HPM_P1;HPM_P2
2021/12/22 00:00:50;;;;;;;21.33;9.70;;;;;;;1.56;53.74;100905.69;5023374;28;20037;-68
2021/12/22 00:03:17;;;;;;;22.43;9.37;;;;;;;1.42;54.59;100914.22;5022004;28;20314;-72
2021/12/22 00:05:45;;;;;;;27.93;10.40;;;;;;;1.69;53.54;100892.88;5022407;28;20057;-72
2021/12/22 00:08:14;;;;;;;19.67;9.23;;;;;;;1.74;53.55;100917.00;5022155;28;20036;-67
2021/12/22 00:10:41;;;;;;;19.27;9.40;;;;;;;1.66;53.88;100914.78;5005432;28;20037;-73
2021/12/22 00:13:06;;;;;;;35.57;14.07;;;;;;;1.69;52.97;100916.38;5023540;28;20061;-73
2021/12/22 00:15:32;;;;;;;27.60;10.60;;;;;;;1.67;53.52;100919.06;5021442;28;20202;-72
2021/12/22 00:17:57;;;;;;;21.43;9.67;;;;;;;1.59;53.39;100916.84;5021768;28;20053;-73
2021/12/22 00:20:23;;;;;;;15.33;8.13;;;;;;;1.63;53.82;100919.28;5021774;28;20038;-72
2021/12/22 00:22:48;;;;;;;20.43;8.60;;;;;;;1.65;53.48;100912.22;5023250;28;20052;-72
2021/12/22 00:25:15;;;;;;;22.57;8.77;;;;;;;1.70;53.43;100918.06;5022590;28;20088;-73
2021/12/22 00:27:41;;;;;;;14.93;8.60;;;;;;;1.53;54.26;100930.19;5023919;28;20109;-72
2021/12/22 00:30:08;;;;;;;18.07;9.00;;;;;;;1.66;54.08;100930.44;5023417;28;20050;-68
2021/12/22 00:32:36;;;;;;;20.20;9.00;;;;;;;1.44;54.71;100924.59;5022959;28;20053;-67
2021/12/22 00:35:02;;;;;;;15.27;7.67;;;;;;;1.46;54.59;100920.97;5023162;28;20209;-73
2021/12/22 00:37:29;;;;;;;16.10;8.63;;;;;;;1.71;53.47;100928.44;5024843;28;20038;-68
2021/12/22 00:39:57;;;;;;;16.20;9.27;;;;;;;1.65;53.78;100928.75;5022660;28;20048;-67
2021/12/22 00:42:24;;;;;;;17.63;8.53;;;;;;;1.41;54.22;100911.69;5023463;28;20107;-67
2021/12/22 00:44:52;;;;;;;15.53;8.23;;;;;;;1.72;53.65;100926.66;5021450;28;20045;-67
2021/12/22 00:47:20;;;;;;;17.60;9.20;;;;;;;1.61;53.43;100901.09;5022775;28;20096;-72
2021/12/22 00:49:45;;;;;;;22.10;9.93;;;;;;;1.98;52.81;100925.34;5004537;28;20194;-68
2021/12/22 00:52:11;;;;;;;17.87;8.40;;;;;;;1.85;53.14;100927.75;5020979;28;20026;-71
2021/12/22 00:54:36;;;;;;;17.73;9.17;;;;;;;1.88;52.31;100919.75;5021625;28;20030;-71
2021/12/22 00:57:05;;;;;;;22.87;10.50;;;;;;;1.82;52.92;100925.28;5021729;28;20280;-71
2021/12/22 00:59:34;;;;;;;19.53;9.33;;;;;;;1.60;52.93;100939.41;5021286;28;20038;-72
2021/12/22 01:02:01;;;;;;;19.23;10.40;;;;;;;1.76;52.71;100931.66;5021756;28;20050;-67
2021/12/22 01:04:27;;;;;;;20.90;11.70;;;;;;;1.60;52.60;100931.59;5021614;28;20037;-71
2021/12/22 01:06:53;;;;;;;21.53;11.10;;;;;;;1.79;51.97;100934.13;5020575;28;20068;-67
2021/12/22 01:09:19;;;;;;;20.67;10.80;;;;;;;1.88;52.05;100935.41;5021284;28;20080;-66
2021/12/22 01:11:45;;;;;;;20.20;10.77;;;;;;;1.99;51.42;100934.88;5020767;28;20037;-72
2021/12/22 01:14:11;;;;;;;23.23;9.83;;;;;;;2.12;50.49;100930.75;5020719;28;20037;-67
2021/12/22 01:16:36;;;;;;;21.23;9.70;;;;;;;1.93;51.09;100923.81;5021729;28;20209;-73
2021/12/22 01:19:07;;;;;;;14.90;6.97;;;;;;;1.99;50.29;100935.72;5020928;28;20161;-73
2021/12/22 01:21:44;;;;;;;13.33;6.63;;;;;;;1.86;51.14;100939.88;5022362;28;20218;-70
2021/12/22 01:24:15;;;;;;;19.17;7.97;;;;;;;1.95;50.84;100934.19;5022109;28;20113;-67
2021/12/22 01:26:46;;;;;;;14.60;7.27;;;;;;;1.86;51.44;100927.66;5022756;28;20034;-72
2021/12/22 01:29:13;;;;;;;13.40;6.93;;;;;;;1.83;51.67;100922.59;5022160;28;20080;-72
2021/12/22 01:31:41;;;;;;;14.87;7.60;;;;;;;1.66;51.36;100925.22;5022726;28;20060;-67
2021/12/22 01:34:07;;;;;;;19.67;7.47;;;;;;;1.62;51.67;100915.84;5021909;28;20041;-71
2021/12/22 01:36:33;;;;;;;20.53;8.40;;;;;;;1.63;52.39;100927.97;5023648;28;20033;-69
2021/12/22 01:38:58;;;;;;;22.80;10.07;;;;;;;1.85;51.64;100919.91;5021722;28;20394;-74
2021/12/22 01:41:24;;;;;;;19.77;8.83;;;;;;;1.86;51.53;100926.81;5022174;28;20049;-73
2021/12/22 01:43:50;;;;;;;12.97;7.07;;;;;;;1.84;51.18;100920.81;5021276;28;20316;-67
2021/12/22 01:49:50;;;;;;;16.07;7.00;;;;;;;1.72;51.92;100919.69;4988575;28;20213;-67
2021/12/22 01:52:21;;;;;;;15.20;7.30;;;;;;;1.67;51.89;100920.84;5021777;28;20044;-74
2021/12/22 01:55:05;;;;;;;12.43;7.10;;;;;;;1.49;52.42;100931.28;5021687;28;20239;-73
2021/12/22 01:57:33;;;;;;;11.45;6.60;;;;;;;1.64;52.28;100919.22;5021959;28;20045;-73
2021/12/22 02:00:01;;;;;;;11.73;6.80;;;;;;;1.58;52.22;100922.13;5022258;28;20029;-74
2021/12/22 02:02:28;;;;;;;12.17;6.20;;;;;;;1.43;53.38;100928.13;5021147;28;20041;-69
2021/12/22 02:04:54;;;;;;;14.50;6.87;;;;;;;1.54;52.50;100929.28;5021941;28;20045;-71
2021/12/22 02:07:19;;;;;;;18.97;7.00;;;;;;;1.66;52.65;100927.81;5003651;28;20097;-69
2021/12/22 02:12:19;;;;;;;16.53;7.07;;;;;;;1.67;52.27;100931.28;5021727;28;20212;-70
2021/12/22 02:14:46;;;;;;;16.93;7.60;;;;;;;1.61;52.67;100927.19;5022208;28;20057;-73
2021/12/22 02:17:12;;;;;;;30.73;9.60;;;;;;;1.59;52.81;100918.59;5021767;28;20030;-73
2021/12/22 02:19:43;;;;;;;18.33;7.23;;;;;;;1.63;52.29;100925.38;5020754;28;20221;-68
2021/12/22 02:22:12;;;;;;;16.17;6.77;;;;;;;1.46;53.00;100917.53;5022369;28;20044;-68
2021/12/22 02:24:38;;;;;;;11.40;6.27;;;;;;;1.47;53.10;100927.88;5022112;28;20030;-74
2021/12/22 02:27:10;;;;;;;17.10;8.23;;;;;;;1.13;53.08;100920.00;5021579;28;20286;-69
2021/12/22 02:29:38;;;;;;;26.40;13.53;;;;;;;1.15;53.38;100926.84;5021529;28;20117;-73
2021/12/22 02:32:45;;;;;;;17.83;8.77;;;;;;;1.38;52.55;100930.94;5021564;28;20064;-73
2021/12/22 02:35:06;;;;;;;13.10;7.23;;;;;;;0.96;53.31;100926.00;5002827;28;20046;-73
2021/12/22 02:37:41;;;;;;;12.33;6.30;;;;;;;1.12;52.79;100916.56;5012513;28;20065;-69
2021/12/22 02:40:12;;;;;;;9.70;6.03;;;;;;;1.06;53.46;100929.03;5020626;28;20048;-73
2021/12/22 02:42:37;;;;;;;13.60;6.57;;;;;;;1.33;52.88;100935.53;5021573;28;20037;-73
2021/12/22 02:45:13;;;;;;;10.80;6.17;;;;;;;1.45;51.65;100932.34;5020221;28;20263;-68
2021/12/22 02:47:39;;;;;;;13.60;6.10;;;;;;;1.42;52.14;100929.88;5002699;28;20034;-69
2021/12/22 02:50:06;;;;;;;14.80;6.13;;;;;;;1.54;51.64;100925.81;5002082;28;20034;-73
2021/12/22 02:52:41;;;;;;;12.97;5.47;;;;;;;1.46;51.67;100925.34;5021154;28;20270;-68
2021/12/22 02:55:07;;;;;;;18.30;7.10;;;;;;;1.44;52.21;100925.44;5022393;28;20026;-73
2021/12/22 02:57:41;;;;;;;16.77;6.70;;;;;;;1.38;51.97;100925.72;5020692;28;20034;-73
2021/12/22 03:03:05;;;;;;;12.20;4.50;;;;;;;1.42;52.01;100924.66;5019533;28;20226;-69
2021/12/22 03:05:30;;;;;;;8.93;5.90;;;;;;;1.23;52.93;100924.72;5016800;28;20038;-73
2021/12/22 03:07:56;;;;;;;13.77;6.03;;;;;;;0.98;53.31;100921.56;5019491;28;20038;-73
2021/12/22 03:10:23;;;;;;;12.83;6.10;;;;;;;1.09;52.76;100927.13;5019541;28;20033;-68
2021/12/22 03:12:55;;;;;;;12.10;6.77;;;;;;;1.11;53.02;100927.06;5018783;28;20323;-73
2021/12/22 03:15:21;;;;;;;16.30;8.27;;;;;;;1.05;53.17;100922.13;5019860;28;20053;-74
2021/12/22 03:17:48;;;;;;;18.60;9.53;;;;;;;0.95;52.98;100919.09;5018499;28;20030;-68
2021/12/22 03:20:15;;;;;;;16.07;8.27;;;;;;;1.12;53.13;100915.72;5019704;28;20046;-73
2021/12/22 03:22:43;;;;;;;14.63;7.47;;;;;;;1.15;52.48;100926.00;5019695;28;20102;-69
2021/12/22 03:25:15;;;;;;;16.83;7.30;;;;;;;1.05;52.60;100924.75;5001896;28;20068;-73
2021/12/22 03:27:46;;;;;;;12.53;7.03;;;;;;;1.11;52.65;100929.66;5017295;28;20038;-74
2021/12/22 03:30:14;;;;;;;12.57;5.93;;;;;;;1.15;52.31;100929.44;5002113;28;20349;-73
2021/12/22 03:32:40;;;;;;;10.17;6.73;;;;;;;0.95;52.62;100932.13;5002748;28;20030;-68
2021/12/22 03:35:06;;;;;;;11.47;5.90;;;;;;;1.20;51.91;100930.06;5019688;28;20045;-74
2021/12/22 03:37:32;;;;;;;14.87;6.57;;;;;;;1.45;50.88;100934.09;5020761;28;20042;-74
2021/12/22 03:39:58;;;;;;;17.87;7.23;;;;;;;1.50;50.42;100946.00;5020320;28;20053;-73
2021/12/22 03:42:23;;;;;;;18.30;6.97;;;;;;;1.59;50.40;100945.56;5018679;28;20030;-68
2021/12/22 03:44:49;;;;;;;13.57;6.80;;;;;;;0.97;51.61;100948.53;5019543;28;20026;-71
2021/12/22 03:47:14;;;;;;;14.27;6.67;;;;;;;0.86;53.55;100948.19;5020941;28;20029;-74
2021/12/22 03:49:40;;;;;;;13.47;6.50;;;;;;;0.95;53.54;100951.22;5020271;28;20061;-74
2021/12/22 03:52:06;;;;;;;20.03;6.70;;;;;;;0.94;54.06;100959.97;5020536;28;20072;-73
2021/12/22 03:54:31;;;;;;;16.47;8.40;;;;;;;0.47;55.04;100946.50;5005755;28;20022;-73
2021/12/22 03:56:57;;;;;;;20.67;9.60;;;;;;;0.37;56.18;100953.03;5022872;28;20083;-68
2021/12/22 03:59:23;;;;;;;16.60;8.57;;;;;;;0.48;55.85;100957.78;5004482;28;20038;-67
2021/12/22 04:01:50;;;;;;;17.77;7.43;;;;;;;0.65;55.06;100955.25;5022377;28;20049;-69
2021/12/22 04:04:18;;;;;;;20.97;7.43;;;;;;;0.51;55.34;100948.06;5022090;28;20046;-73
2021/12/22 04:06:45;;;;;;;16.63;8.27;;;;;;;0.48;55.39;100955.16;5021735;28;20042;-73
2021/12/22 04:09:12;;;;;;;47.13;13.03;;;;;;;0.28;56.24;100961.25;5004252;28;20322;-69
2021/12/22 04:11:38;;;;;;;19.73;8.43;;;;;;;0.43;55.33;100962.34;5021206;28;20042;-69
2021/12/22 04:14:03;;;;;;;44.00;11.80;;;;;;;0.37;56.34;100965.22;5021423;28;20033;-74
2021/12/22 04:16:29;;;;;;;74.73;18.87;;;;;;;0.83;54.62;100961.38;5023112;28;20033;-73
2021/12/22 04:18:54;;;;;;;47.50;15.33;;;;;;;0.77;55.11;100962.50;5021156;28;20054;-68
2021/12/22 04:21:20;;;;;;;29.70;12.17;;;;;;;0.47;55.88;100971.72;5022271;28;20121;-74
2021/12/22 04:23:45;;;;;;;28.23;12.33;;;;;;;0.03;57.58;100974.50;5022565;28;20048;-70
2021/12/22 04:26:12;;;;;;;32.20;12.97;;;;;;;-0.05;57.97;100963.53;5021644;28;20049;-73
2021/12/22 04:28:39;;;;;;;23.87;11.67;;;;;;;0.22;57.84;100977.16;5022713;28;20093;-73
2021/12/22 04:31:05;;;;;;;26.80;12.33;;;;;;;0.27;57.64;100981.25;5022694;28;20033;-73
2021/12/22 04:33:31;;;;;;;27.03;12.33;;;;;;;0.19;57.77;100983.34;5023212;28;20036;-69
2021/12/22 04:35:56;;;;;;;28.13;13.57;;;;;;;0.16;57.32;100953.97;5022984;28;20036;-69
2021/12/22 04:38:22;;;;;;;32.03;14.17;;;;;;;0.42;57.21;100984.09;5024561;28;20037;-68
2021/12/22 04:40:47;;;;;;;36.43;15.57;;;;;;;0.46;56.96;100977.84;5021118;28;20259;-68
2021/12/22 04:43:13;;;;;;;35.30;13.73;;;;;;;0.34;57.76;100992.25;5023918;28;20034;-73
2021/12/22 04:45:38;;;;;;;26.63;11.90;;;;;;;0.66;57.00;100990.81;5023060;28;20030;-73
2021/12/22 04:48:05;;;;;;;25.13;11.77;;;;;;;0.52;57.22;100991.44;5022683;28;20189;-69
2021/12/22 04:50:32;;;;;;;21.83;11.30;;;;;;;0.34;57.93;100989.66;5005935;28;20213;-73
2021/12/22 04:53:03;;;;;;;34.00;14.97;;;;;;;0.32;58.47;100996.69;5005187;28;20022;-73
2021/12/22 04:55:29;;;;;;;34.67;14.23;;;;;;;0.42;57.96;100997.13;5005745;28;20037;-68
2021/12/22 04:57:57;;;;;;;117.47;27.63;;;;;;;0.55;57.52;100990.47;5023477;28;20033;-74
2021/12/22 05:00:26;;;;;;;34.17;16.70;;;;;;;0.36;57.76;101000.84;5022607;28;20084;-74
2021/12/22 05:02:53;;;;;;;49.37;20.13;;;;;;;0.47;58.34;100996.00;5020238;28;20070;-69
2021/12/22 05:05:19;;;;;;;55.27;19.57;;;;;;;0.44;58.16;101003.13;5021461;28;20037;-69
2021/12/22 05:07:47;;;;;;;27.23;13.87;;;;;;;0.64;57.29;100997.88;5020721;28;20117;-68
2021/12/22 05:10:13;;;;;;;39.63;16.37;;;;;;;0.79;57.09;100998.94;5021732;28;20034;-74
2021/12/22 05:12:39;;;;;;;47.50;19.20;;;;;;;0.85;56.42;101002.13;5022267;28;20050;-73
2021/12/22 05:15:05;;;;;;;43.70;18.83;;;;;;;0.63;57.55;101001.38;5021493;28;20033;-68
2021/12/22 05:20:13;;;;;;;41.60;18.23;;;;;;;-0.13;59.01;100995.09;5006871;28;20058;-74
2021/12/22 05:22:39;;;;;;;47.20;18.97;;;;;;;0.19;58.44;100998.97;5020669;28;20033;-69
2021/12/22 05:25:07;;;;;;;44.63;18.97;;;;;;;0.37;57.83;101005.13;5021889;28;20129;-68
2021/12/22 05:27:33;;;;;;;46.33;20.00;;;;;;;0.44;57.23;101005.72;5022037;28;20038;-73
2021/12/22 05:29:58;;;;;;;37.20;18.67;;;;;;;0.54;57.00;101005.25;5003123;28;20038;-73
2021/12/22 05:32:30;;;;;;;35.47;16.80;;;;;;;0.53;57.28;101008.78;5020685;28;20064;-69
2021/12/22 05:34:57;;;;;;;36.37;16.47;;;;;;;0.66;57.06;101008.22;5020905;28;20038;-69
2021/12/22 05:37:22;;;;;;;48.03;18.30;;;;;;;0.60;56.73;101001.53;5020088;28;20026;-73
2021/12/22 05:39:48;;;;;;;34.40;16.47;;;;;;;0.67;56.64;101005.56;5019890;28;20045;-68
2021/12/22 05:42:13;;;;;;;36.63;17.00;;;;;;;0.63;57.15;101017.88;5020205;28;20025;-69
2021/12/22 05:44:39;;;;;;;40.90;15.77;;;;;;;0.64;56.85;101009.13;5022052;28;20040;-74
2021/12/22 05:47:05;;;;;;;32.97;14.83;;;;;;;0.57;56.71;101015.53;5021633;28;20029;-73
2021/12/22 05:49:30;;;;;;;33.27;15.30;;;;;;;0.65;56.62;101020.41;5019629;28;20034;-68
2021/12/22 05:51:55;;;;;;;37.20;16.37;;;;;;;0.62;56.65;101026.59;4992036;28;20041;-73
2021/12/22 05:54:21;;;;;;;44.00;18.13;;;;;;;0.51;56.30;101023.63;5021416;28;20049;-69
2021/12/22 05:56:46;;;;;;;39.20;17.57;;;;;;;0.20;57.35;101018.91;5003907;28;20030;-67
2021/12/22 05:59:12;;;;;;;49.17;17.53;;;;;;;0.15;57.80;101025.22;5019896;28;20063;-71
2021/12/22 06:01:37;;;;;;;38.23;16.67;;;;;;;0.14;58.09;101033.94;5019749;28;20033;-71
2021/12/22 06:04:03;;;;;;;36.57;16.80;;;;;;;0.19;58.15;101029.38;5020951;28;20042;-68
2021/12/22 06:06:29;;;;;;;36.07;17.07;;;;;;;0.25;59.23;101029.13;5021358;28;20018;-69
2021/12/22 06:08:55;;;;;;;44.47;16.47;;;;;;;0.37;58.41;101027.75;5019930;28;20038;-69
2021/12/22 06:11:20;;;;;;;41.23;14.47;;;;;;;0.40;57.46;101035.44;5020673;28;20121;-68
2021/12/22 06:13:46;;;;;;;31.00;14.23;;;;;;;0.21;57.61;101019.75;5020375;28;20029;-68
2021/12/22 06:16:11;;;;;;;38.93;16.30;;;;;;;0.28;57.73;101042.00;5019832;28;20029;-73
2021/12/22 06:18:42;;;;;;;42.83;18.33;;;;;;;0.43;57.46;101046.56;5019778;28;20340;-69
2021/12/22 06:21:09;;;;;;;52.40;20.00;;;;;;;0.34;58.26;101046.13;5020534;28;20054;-73
2021/12/22 06:23:34;;;;;;;60.90;23.43;;;;;;;0.32;58.88;101061.81;5019503;28;20231;-68
2021/12/22 06:26:00;;;;;;;73.23;27.20;;;;;;;0.49;58.24;101059.34;5020377;28;20037;-68
2021/12/22 06:28:25;;;;;;;65.67;25.43;;;;;;;0.28;58.81;101048.06;5019251;28;20025;-73
2021/12/22 06:30:50;;;;;;;70.60;26.00;;;;;;;0.53;57.83;101053.06;5019870;28;20029;-68
2021/12/22 06:33:16;;;;;;;64.17;26.83;;;;;;;0.71;57.54;101058.41;5020288;28;20312;-69
2021/12/22 06:35:41;;;;;;;61.57;24.83;;;;;;;0.85;58.18;101054.25;5019902;28;20030;-69
2021/12/22 06:38:07;;;;;;;48.03;20.23;;;;;;;0.24;60.39;101061.28;5003578;28;20108;-70
2021/12/22 06:40:33;;;;;;;40.67;17.43;;;;;;;0.01;61.25;101057.03;5020378;28;20037;-72
2021/12/22 06:42:58;;;;;;;36.50;15.90;;;;;;;-0.04;62.36;101057.19;5001355;28;20300;-72
2021/12/22 06:45:24;;;;;;;42.03;17.50;;;;;;;0.21;60.79;101054.44;5021123;28;20033;-73
2021/12/22 06:47:52;;;;;;;47.77;18.83;;;;;;;0.39;61.11;101060.63;5020813;28;20064;-73
2021/12/22 06:50:18;;;;;;;36.20;15.00;;;;;;;0.41;59.20;101061.41;5018767;28;20072;-67
2021/12/22 06:52:43;;;;;;;33.30;14.50;;;;;;;0.35;59.27;101066.91;5020663;28;20339;-72
2021/12/22 06:55:09;;;;;;;25.57;11.83;;;;;;;0.36;59.17;101065.13;5020877;28;20025;-68
2021/12/22 06:57:34;;;;;;;25.33;11.30;;;;;;;0.39;58.32;101070.22;5018927;28;21249;-68
2021/12/22 07:00:03;;;;;;;31.57;13.93;;;;;;;0.39;57.89;101062.41;5002332;28;20030;-73
2021/12/22 07:02:31;;;;;;;35.17;14.97;;;;;;;0.42;58.57;101052.69;5019339;28;20026;-68
2021/12/22 07:04:56;;;;;;;32.03;14.07;;;;;;;0.39;60.86;101068.47;5020610;28;20367;-72
2021/12/22 07:07:22;;;;;;;30.70;14.67;;;;;;;0.36;60.56;101060.78;5020642;28;20024;-72
2021/12/22 07:09:47;;;;;;;27.20;12.90;;;;;;;0.27;60.48;101051.59;5020826;28;20221;-72
2021/12/22 07:12:13;;;;;;;27.70;13.73;;;;;;;0.32;59.56;101043.56;5022460;28;20034;-68
2021/12/22 07:14:38;;;;;;;27.53;13.33;;;;;;;0.44;59.24;101048.25;5020822;28;20089;-68
2021/12/22 07:17:04;;;;;;;26.80;14.07;;;;;;;0.65;58.20;101056.91;5021927;28;20098;-68
2021/12/22 07:19:29;;;;;;;29.13;13.13;;;;;;;1.02;56.57;101058.72;5020286;28;20092;-68
2021/12/22 07:21:55;;;;;;;90.90;26.30;;;;;;;1.23;56.07;101063.00;5021272;28;20038;-73
2021/12/22 07:24:21;;;;;;;73.80;23.33;;;;;;;1.59;55.48;101059.56;5020800;28;20041;-72
2021/12/22 07:26:46;;;;;;;30.70;15.17;;;;;;;1.73;54.53;101064.13;5021938;28;20304;-72
2021/12/22 07:29:12;;;;;;;28.33;13.17;;;;;;;1.76;54.13;101066.59;5021785;28;20044;-69
2021/12/22 07:31:38;;;;;;;23.17;12.43;;;;;;;1.77;53.75;101060.47;5025630;28;20029;-72
2021/12/22 07:34:09;;;;;;;25.27;11.90;;;;;;;1.55;54.42;101068.47;5025818;28;20319;-68
2021/12/22 07:36:42;;;;;;;21.90;12.03;;;;;;;1.71;54.47;101061.59;5025501;28;20328;-73
2021/12/22 07:39:07;;;;;;;26.03;12.73;;;;;;;1.79;53.83;101049.03;5025652;28;20247;-72
2021/12/22 07:41:33;;;;;;;25.43;12.00;;;;;;;1.83;53.90;101065.38;5025718;28;20097;-69
2021/12/22 07:43:58;;;;;;;23.63;12.40;;;;;;;1.55;54.44;101071.09;5025121;28;20026;-73
2021/12/22 07:46:24;;;;;;;41.63;13.17;;;;;;;1.65;53.89;101077.56;5008074;28;20048;-68
2021/12/22 07:48:49;;;;;;;26.33;12.97;;;;;;;1.77;54.49;101069.16;5024087;28;20018;-68
2021/12/22 07:51:15;;;;;;;24.47;12.63;;;;;;;2.06;53.32;101065.09;5025066;28;20077;-73
2021/12/22 07:53:41;;;;;;;29.70;13.40;;;;;;;2.18;53.28;101079.38;5025889;28;20304;-73
2021/12/22 07:56:06;;;;;;;33.57;15.43;;;;;;;2.26;52.60;101074.59;5025428;28;20050;-74
2021/12/22 07:58:32;;;;;;;30.33;15.40;;;;;;;2.07;52.42;101066.81;5024947;28;20036;-69
2021/12/22 08:00:58;;;;;;;30.27;12.93;;;;;;;2.10;52.25;101071.06;5025244;28;20332;-74
2021/12/22 08:03:24;;;;;;;30.77;13.83;;;;;;;2.31;51.97;101084.81;5025573;28;20025;-73
2021/12/22 08:05:51;;;;;;;33.63;14.80;;;;;;;2.71;51.24;101083.63;5024826;28;20053;-68
2021/12/22 08:08:19;;;;;;;26.20;13.40;;;;;;;2.83;50.72;101077.78;5025500;28;20034;-68
2021/12/22 08:10:46;;;;;;;24.47;14.17;;;;;;;3.02;50.34;101086.34;5025144;28;20088;-73
2021/12/22 08:13:12;;;;;;;32.43;15.30;;;;;;;3.23;49.25;101089.63;5007427;28;20025;-73
2021/12/22 08:15:37;;;;;;;28.73;14.07;;;;;;;3.65;47.55;101083.81;5025017;28;20042;-72
2021/12/22 08:18:03;;;;;;;31.80;14.73;;;;;;;3.66;47.72;101084.66;5024736;28;20045;-72
2021/12/22 08:20:29;;;;;;;31.07;15.33;;;;;;;3.89;47.20;101084.19;5024657;28;20049;-70
2021/12/22 08:22:54;;;;;;;25.93;14.00;;;;;;;3.95;47.33;101086.47;5024640;28;20320;-69
2021/12/22 08:25:20;;;;;;;30.80;15.13;;;;;;;4.06;46.67;101072.75;5024871;28;20058;-69
2021/12/22 08:27:46;;;;;;;32.57;14.77;;;;;;;4.21;46.08;101076.31;5024717;28;20034;-66
2021/12/22 08:30:12;;;;;;;26.87;13.47;;;;;;;3.81;46.10;101084.63;5024785;28;20042;-67
2021/12/22 08:32:38;;;;;;;30.50;14.43;;;;;;;3.71;47.52;101082.63;5024503;28;20049;-71
2021/12/22 08:35:07;;;;;;;24.70;11.93;;;;;;;3.70;47.26;101091.41;5024232;28;20076;-71
2021/12/22 08:40:21;;;;;;;25.27;12.97;;;;;;;3.92;46.86;101091.03;5024176;28;20109;-66
2021/12/22 08:42:48;;;;;;;26.63;13.13;;;;;;;4.07;47.01;101095.41;5024400;28;20045;-66
2021/12/22 08:45:14;;;;;;;26.90;13.17;;;;;;;3.98;47.22;101088.06;5024582;28;20092;-70
2021/12/22 08:47:40;;;;;;;27.97;13.33;;;;;;;4.09;47.36;101078.66;5024557;28;20059;-66
2021/12/22 08:50:08;;;;;;;35.33;15.70;;;;;;;4.04;47.02;101091.19;5024189;28;20045;-67
2021/12/22 08:52:34;;;;;;;68.03;22.97;;;;;;;3.98;47.70;101080.22;5006612;28;20041;-71
2021/12/22 08:54:59;;;;;;;32.17;14.63;;;;;;;4.20;46.59;101070.22;5024529;28;20308;-72
2021/12/22 08:57:25;;;;;;;31.87;16.03;;;;;;;4.46;45.95;101077.41;5006495;28;20096;-72
2021/12/22 08:59:51;;;;;;;27.43;13.40;;;;;;;4.49;46.18;101071.13;5024258;28;20052;-71
2021/12/22 09:02:17;;;;;;;27.60;13.03;;;;;;;4.36;46.20;101068.38;5024012;28;21740;-69
2021/12/22 09:04:42;;;;;;;25.63;13.40;;;;;;;4.51;45.32;101071.03;5024012;28;20080;-67
2021/12/22 09:07:08;;;;;;;25.73;13.43;;;;;;;4.52;45.49;101076.19;5023835;28;20080;-68
2021/12/22 09:09:34;;;;;;;24.33;13.03;;;;;;;4.62;44.37;101066.00;5024041;28;20038;-71
2021/12/22 09:11:59;;;;;;;27.73;13.10;;;;;;;4.56;45.27;101056.72;5006233;28;20036;-71
2021/12/22 09:14:25;;;;;;;29.63;12.67;;;;;;;4.07;46.67;101056.94;5023760;28;20268;-71
2021/12/22 09:16:51;;;;;;;25.33;12.63;;;;;;;3.99;47.39;101064.41;5023686;28;20040;-71
2021/12/22 09:19:17;;;;;;;22.20;11.77;;;;;;;4.22;45.50;101068.34;5023553;28;20449;-70
2021/12/22 09:21:45;;;;;;;22.13;10.57;;;;;;;4.43;44.75;101066.25;5023630;28;20050;-67
2021/12/22 09:24:10;;;;;;;28.10;12.67;;;;;;;4.43;44.85;101056.59;5023717;28;20300;-71
2021/12/22 09:26:37;;;;;;;22.13;11.37;;;;;;;4.58;45.01;101056.63;5023702;28;20038;-66
2021/12/22 09:29:04;;;;;;;25.17;11.80;;;;;;;4.61;45.09;101045.94;5023292;28;20034;-72
2021/12/22 09:31:29;;;;;;;25.87;11.53;;;;;;;4.33;46.01;101034.47;5023418;28;20030;-66
2021/12/22 09:33:55;;;;;;;17.30;10.17;;;;;;;4.31;45.73;101044.22;5023293;28;20053;-72
2021/12/22 09:36:21;;;;;;;23.47;11.07;;;;;;;4.32;45.82;101035.41;5023578;28;20030;-71
2021/12/22 09:38:47;;;;;;;21.73;11.00;;;;;;;4.57;45.03;101037.41;5023820;28;20033;-69
2021/12/22 09:41:13;;;;;;;18.40;8.90;;;;;;;4.30;44.61;101029.41;5023399;28;20347;-71
2021/12/22 09:43:38;;;;;;;25.33;13.20;;;;;;;4.11;44.45;101024.38;5023426;28;20065;-71
2021/12/22 09:46:09;;;;;;;28.27;11.80;;;;;;;4.06;45.16;101023.81;5023295;28;20034;-71
2021/12/22 09:53:39;;;;;;;105.70;30.07;;;;;;;4.24;44.69;101014.03;5022838;28;20033;-67
2021/12/22 09:56:06;;;;;;;24.97;12.47;;;;;;;4.15;45.36;101012.78;5023176;28;20358;-71
2021/12/22 09:58:32;;;;;;;17.53;9.20;;;;;;;4.16;45.83;101008.38;5023133;28;20029;-71
2021/12/22 10:00:58;;;;;;;18.87;9.47;;;;;;;4.23;45.90;101011.50;5023235;28;20037;-66
2021/12/22 10:03:25;;;;;;;17.30;9.67;;;;;;;4.20;45.99;101009.91;5022708;28;20044;-66
2021/12/22 10:05:52;;;;;;;19.60;8.80;;;;;;;4.41;44.54;101013.03;5022756;28;20100;-71
2021/12/22 10:08:23;;;;;;;14.97;8.47;;;;;;;4.25;45.18;100993.91;5022835;28;20033;-67
2021/12/22 10:11:04;;;;;;;16.47;8.60;;;;;;;4.36;44.11;101004.59;5022901;28;20391;-66
2021/12/22 10:13:31;;;;;;;15.50;7.00;;;;;;;4.54;43.60;101005.28;5023236;28;20219;-71
2021/12/22 10:15:57;;;;;;;13.57;7.80;;;;;;;4.65;43.00;101003.69;5022862;28;20033;-72
2021/12/22 10:18:25;;;;;;;17.40;7.80;;;;;;;4.40;43.47;101000.88;5004967;28;20044;-67
2021/12/22 10:20:54;;;;;;;36.97;12.60;;;;;;;4.51;42.30;101008.09;5022617;28;20038;-72
2021/12/22 10:23:24;;;;;;;19.97;8.87;;;;;;;4.36;42.50;100997.59;5005034;28;20026;-66
2021/12/22 10:26:15;;;;;;;73.77;19.20;;;;;;;4.19;43.30;100997.75;5022664;28;20046;-71
2021/12/22 10:28:51;;;;;;;18.20;8.80;;;;;;;3.60;44.88;100995.94;5022999;28;20033;-71
2021/12/22 10:31:19;;;;;;;19.33;10.70;;;;;;;3.99;44.30;101000.66;5022642;28;20045;-71
2021/12/22 10:33:45;;;;;;;12.87;6.90;;;;;;;4.16;42.41;100995.28;5022906;28;20072;-66
2021/12/22 10:36:20;;;;;;;15.50;8.03;;;;;;;3.94;43.64;100992.22;5022434;28;20264;-67
2021/12/22 10:38:54;;;;;;;17.30;8.73;;;;;;;4.11;43.66;100992.06;5021116;28;20095;-71
2021/12/22 10:41:21;;;;;;;16.80;8.67;;;;;;;3.91;44.15;100988.00;5021345;28;20045;-71
2021/12/22 10:43:50;;;;;;;19.23;8.43;;;;;;;3.67;44.41;100974.53;5020884;28;20041;-67
2021/12/22 10:46:27;;;;;;;20.30;9.57;;;;;;;3.69;44.76;100983.16;5022027;28;20030;-66
2021/12/22 10:49:25;;;;;;;19.87;8.53;;;;;;;3.41;44.75;100978.66;5018640;28;20034;-68
2021/12/22 10:51:53;;;;;;;15.37;8.13;;;;;;;3.38;45.21;100972.75;4998088;28;20201;-74
2021/12/22 10:54:19;;;;;;;13.50;8.20;;;;;;;3.42;44.47;100967.25;5021088;28;20065;-73
2021/12/22 10:56:47;;;;;;;15.37;7.97;;;;;;;3.29;45.61;100971.47;5018768;28;20030;-68
2021/12/22 10:59:17;;;;;;;16.73;8.63;;;;;;;3.39;45.47;100959.56;5018937;28;20266;-72
2021/12/22 11:01:56;;;;;;;13.97;7.57;;;;;;;3.69;45.77;100959.59;5019036;28;20017;-71
2021/12/22 11:04:27;;;;;;;14.80;7.97;;;;;;;3.71;44.57;100957.72;5021257;28;20041;-69
2021/12/22 11:06:55;;;;;;;14.30;7.30;;;;;;;3.71;44.22;100949.03;5020567;28;20036;-72
2021/12/22 11:09:22;;;;;;;16.50;8.07;;;;;;;3.85;44.78;100939.41;5007155;28;20133;-72
2021/12/22 11:11:58;;;;;;;29.37;10.03;;;;;;;3.43;44.73;100941.91;5024239;28;20044;-71
2021/12/22 11:14:26;;;;;;;18.97;7.50;;;;;;;3.83;44.21;100930.81;5007990;28;20228;-71
2021/12/22 11:17:02;;;;;;;10.17;6.30;;;;;;;4.09;43.78;100942.38;5006593;28;20471;-66
2021/12/22 11:19:32;;;;;;;13.90;6.77;;;;;;;4.08;44.10;100927.56;5024258;28;20038;-71
2021/12/22 11:22:13;;;;;;;14.73;7.87;;;;;;;4.08;44.11;100940.69;5025022;28;20297;-69
2021/12/22 11:24:43;;;;;;;10.23;6.33;;;;;;;4.11;43.43;100940.50;5023957;28;20052;-67
2021/12/22 11:27:12;;;;;;;12.43;6.83;;;;;;;3.92;44.08;100936.44;5026047;28;20033;-68
2021/12/22 11:29:57;;;;;;;11.87;5.87;;;;;;;3.83;43.52;100936.06;5025082;28;20193;-68
2021/12/22 11:32:29;;;;;;;41.93;10.53;;;;;;;4.01;44.03;100935.91;5025827;28;20235;-66
2021/12/22 11:34:57;;;;;;;11.17;6.90;;;;;;;4.26;42.97;100936.16;5024113;28;20045;-71
2021/12/22 11:37:24;;;;;;;14.70;8.73;;;;;;;4.36;42.57;100928.56;5025871;28;20033;-71
2021/12/22 11:39:50;;;;;;;32.90;19.57;;;;;;;4.29;42.76;100933.34;5023588;28;20045;-71
2021/12/22 11:42:16;;;;;;;12.30;6.80;;;;;;;4.49;41.86;100925.09;5024917;28;20360;-66